Time;durP1;ratioP1;P1;durP2;ratioP2;P2;SDS_P1;SDS_P2;PMS_P1;PMS_P2;Temp;Humidity;BMP_temperature;BMP_pressure;BME280_temperature;BME280_humidity;BME280_pressure;Samples;Min_cycle;Max_cycle;Signal;HPM_P1;HPM_P2
2023/03/11 00:01:05;;;;;;;0.80;0.80;;;;;;;-6.69;65.45;98717.91;4991822;28;20134;-79
2023/03/11 00:03:32;;;;;;;0.90;0.90;;;;;;;-6.66;65.36;98717.63;4990987;28;20417;-77
2023/03/11 00:06:01;;;;;;;0.88;0.88;;;;;;;-6.66;65.33;98722.88;4991392;28;20054;-76
2023/03/11 00:08:28;;;;;;;0.82;0.82;;;;;;;-6.68;65.33;98716.09;4991666;28;20062;-78
2023/03/11 00:10:59;;;;;;;0.80;0.80;;;;;;;-6.72;65.05;98712.94;4990314;28;20043;-78
2023/03/11 00:13:27;;;;;;;0.82;0.82;;;;;;;-6.71;65.08;98706.69;4991582;28;20081;-78
2023/03/11 00:15:55;;;;;;;0.85;0.85;;;;;;;-6.71;65.29;98711.94;4990763;28;20509;-78
2023/03/11 00:18:25;;;;;;;1.08;1.08;;;;;;;-6.72;65.13;98712.13;4991759;28;20042;-78
2023/03/11 00:20:54;;;;;;;0.90;0.90;;;;;;;-6.73;65.36;98706.03;4991631;28;20057;-79
2023/03/11 00:23:25;;;;;;;1.00;1.00;;;;;;;-6.71;65.45;98709.31;4990295;28;20067;-79
2023/03/11 00:25:52;;;;;;;0.85;0.85;;;;;;;-6.72;65.23;98704.25;4991391;28;20593;-80
2023/03/11 00:28:21;;;;;;;0.80;0.80;;;;;;;-6.72;65.20;98697.19;4991033;28;20149;-78
2023/03/11 00:30:48;;;;;;;0.93;0.93;;;;;;;-6.74;65.17;98709.63;4989795;28;20109;-78
2023/03/11 00:33:15;;;;;;;0.70;0.70;;;;;;;-6.77;65.32;98707.28;4971602;28;20138;-79
2023/03/11 00:35:44;;;;;;;0.90;0.90;;;;;;;-6.80;65.29;98705.78;4972212;28;20057;-80
2023/03/11 00:38:14;;;;;;;0.95;0.95;;;;;;;-6.83;65.28;98700.00;4954595;28;20074;-79
2023/03/11 00:40:45;;;;;;;0.60;0.60;;;;;;;-6.80;65.52;98703.16;4969141;28;20144;-79
2023/03/11 00:43:17;;;;;;;0.80;0.80;;;;;;;-6.77;65.43;98709.91;4990939;28;20042;-79
2023/03/11 00:45:46;;;;;;;0.75;0.75;;;;;;;-6.77;65.46;98705.47;4973826;28;20050;-79
2023/03/11 00:48:14;;;;;;;0.77;0.77;;;;;;;-6.74;65.35;98707.00;4990790;28;20046;-79
2023/03/11 00:50:43;;;;;;;0.80;0.80;;;;;;;-6.70;65.49;98703.13;4990012;28;20060;-80
2023/03/11 00:53:13;;;;;;;0.90;0.90;;;;;;;-6.71;65.57;98705.88;4973751;28;20054;-79
2023/03/11 00:55:44;;;;;;;0.90;0.90;;;;;;;-6.72;65.63;98707.69;4973495;28;20046;-78
2023/03/11 00:58:16;;;;;;;0.90;0.90;;;;;;;-6.76;65.49;98709.78;4973431;28;20474;-79
2023/03/11 01:00:57;;;;;;;0.50;0.50;;;;;;;-6.78;65.53;98708.25;4975652;28;20556;-79
2023/03/11 01:03:26;;;;;;;0.60;0.60;;;;;;;-6.85;65.33;98707.16;4956651;28;20160;-79
2023/03/11 01:05:53;;;;;;;0.70;0.70;;;;;;;-6.85;65.49;98705.38;4988756;28;20141;-77
2023/03/11 01:08:25;;;;;;;0.90;0.90;;;;;;;-6.88;65.42;98707.47;4955980;28;20046;-78
2023/03/11 01:10:54;;;;;;;0.77;0.77;;;;;;;-6.90;65.60;98696.28;4972643;28;20050;-79
2023/03/11 01:13:26;;;;;;;0.88;0.88;;;;;;;-6.89;65.79;98696.09;4956428;28;20059;-78
2023/03/11 01:15:56;;;;;;;0.90;0.90;;;;;;;-6.89;65.89;98701.34;4941208;28;20102;-79
2023/03/11 01:18:26;;;;;;;0.93;0.93;;;;;;;-6.91;65.97;98700.69;4956894;28;20520;-78
2023/03/11 01:20:54;;;;;;;0.80;0.80;;;;;;;-6.95;65.83;98699.31;4972752;28;20464;-77
2023/03/11 01:23:23;;;;;;;0.93;0.93;;;;;;;-6.98;65.83;98697.78;4989249;28;20138;-78
2023/03/11 01:25:51;;;;;;;0.85;0.85;;;;;;;-6.98;66.04;98695.16;4933838;29;20528;-79
2023/03/11 01:28:18;;;;;;;0.90;0.90;;;;;;;-6.98;66.26;98702.22;4933931;29;20058;-78
2023/03/11 01:30:45;;;;;;;0.93;0.93;;;;;;;-7.01;66.16;98698.06;4949806;29;20111;-79
2023/03/11 01:33:15;;;;;;;0.85;0.85;;;;;;;-7.01;66.38;98697.25;4949572;29;20059;-79
2023/03/11 01:35:43;;;;;;;0.90;0.90;;;;;;;-7.00;66.69;98701.53;4947673;29;20063;-79
2023/03/11 01:38:11;;;;;;;1.08;1.08;;;;;;;-7.02;66.23;98692.97;4949395;29;20134;-78
2023/03/11 01:40:43;;;;;;;0.82;0.82;;;;;;;-7.00;66.38;98694.47;4949709;28;20059;-78
2023/03/11 01:43:40;;;;;;;0.80;0.80;;;;;;;-7.06;66.53;98700.28;4949441;29;20217;-77
2023/03/11 01:46:45;;;;;;;0.88;0.88;;;;;;;-7.13;66.58;98699.19;4949393;29;20047;-77
2023/03/11 01:49:12;;;;;;;0.98;0.98;;;;;;;-7.15;66.82;98695.06;4925747;29;20063;-79
2023/03/11 01:51:45;;;;;;;0.70;0.70;;;;;;;-7.09;67.18;98697.09;4930193;29;20150;-77
2023/03/11 01:54:27;;;;;;;0.80;0.80;;;;;;;-7.07;67.38;98696.00;4930425;29;20059;-78
2023/03/11 01:56:56;;;;;;;0.90;0.90;;;;;;;-7.03;67.32;98701.81;4942168;28;20058;-78
2023/03/11 01:59:28;;;;;;;1.00;1.00;;;;;;;-7.01;67.87;98689.38;4971994;28;20047;-78
2023/03/11 02:02:22;;;;;;;0.90;0.90;;;;;;;-6.99;68.04;98688.28;4973524;28;20411;-78
2023/03/11 02:04:50;;;;;;;1.00;1.00;;;;;;;-7.02;68.02;98687.72;4957429;28;20047;-79
2023/03/11 02:07:17;;;;;;;0.82;0.82;;;;;;;-6.96;68.15;98687.16;4973208;28;20113;-80
2023/03/11 02:09:46;;;;;;;1.02;1.02;;;;;;;-6.92;68.15;98685.09;4972660;28;20062;-78
2023/03/11 02:12:14;;;;;;;0.90;0.90;;;;;;;-6.93;68.41;98686.88;4974293;28;20059;-77
2023/03/11 02:14:45;;;;;;;0.90;0.90;;;;;;;-6.95;68.54;98688.81;4973245;28;20050;-79
2023/03/11 02:17:12;;;;;;;0.80;0.80;;;;;;;-6.93;68.86;98688.69;4964561;28;20046;-79
2023/03/11 02:20:00;;;;;;;0.70;0.70;;;;;;;-6.92;68.87;98683.28;4976742;28;20054;-79
2023/03/11 02:22:32;;;;;;;0.90;0.90;;;;;;;-6.96;68.88;98679.31;4992530;28;20057;-79
2023/03/11 02:25:27;;;;;;;0.88;0.88;;;;;;;-6.98;69.17;98675.97;4976866;28;20074;-79
2023/03/11 02:27:57;;;;;;;0.85;0.85;;;;;;;-7.04;69.36;98677.38;4999134;28;20457;-79
2023/03/11 02:30:28;;;;;;;0.95;0.95;;;;;;;-7.04;69.79;98674.75;4976236;28;20046;-77
2023/03/11 02:32:55;;;;;;;1.10;1.10;;;;;;;-7.01;70.25;98676.28;4985558;28;20046;-77
2023/03/11 02:35:23;;;;;;;1.10;1.10;;;;;;;-7.02;70.14;98670.16;4988543;28;20046;-79
2023/03/11 02:37:53;;;;;;;0.98;0.98;;;;;;;-7.02;70.27;98672.78;4991108;28;20513;-78
2023/03/11 02:40:22;;;;;;;1.00;1.00;;;;;;;-7.04;70.26;98671.28;4991490;28;20101;-78
2023/03/11 02:42:58;;;;;;;0.82;0.82;;;;;;;-7.08;70.23;98670.75;4991777;28;20042;-77
2023/03/11 02:45:26;;;;;;;0.80;0.80;;;;;;;-7.06;70.63;98674.06;4976020;28;20116;-77
2023/03/11 02:47:55;;;;;;;1.00;1.00;;;;;;;-7.06;70.45;98679.31;4991356;28;20042;-78
2023/03/11 02:50:29;;;;;;;0.90;0.90;;;;;;;-7.07;70.49;98674.19;4973356;28;20147;-79
2023/03/11 02:52:56;;;;;;;1.00;1.00;;;;;;;-7.09;70.43;98676.97;4956465;28;20057;-79
2023/03/11 02:55:23;;;;;;;0.90;0.90;;;;;;;-7.06;70.38;98681.13;4972395;28;20051;-77
2023/03/11 02:57:50;;;;;;;0.75;0.75;;;;;;;-7.01;70.03;98678.91;4990906;28;20054;-79
2023/03/11 03:00:18;;;;;;;0.82;0.82;;;;;;;-7.06;69.91;98674.06;4989247;28;20054;-77
2023/03/11 03:02:52;;;;;;;0.77;0.77;;;;;;;-7.12;69.60;98673.78;4985173;28;20537;-78
2023/03/11 03:05:21;;;;;;;1.10;1.10;;;;;;;-7.11;69.56;98676.28;4990475;28;20042;-78
2023/03/11 03:07:50;;;;;;;1.00;1.00;;;;;;;-7.10;69.07;98683.16;4990647;28;20066;-78
2023/03/11 03:10:19;;;;;;;0.82;0.82;;;;;;;-7.08;69.28;98689.09;4986499;28;20061;-79
2023/03/11 03:12:47;;;;;;;0.90;0.90;;;;;;;-7.08;69.24;98680.41;4974263;28;20055;-78
2023/03/11 03:15:17;;;;;;;0.98;0.98;;;;;;;-7.06;69.32;98679.31;4992614;28;20129;-79
2023/03/11 03:17:45;;;;;;;0.98;0.98;;;;;;;-7.09;68.81;98674.34;4991071;28;20050;-77
2023/03/11 03:20:13;;;;;;;0.95;0.95;;;;;;;-7.12;68.91;98671.16;4990936;28;20080;-80
2023/03/11 03:22:45;;;;;;;0.85;0.85;;;;;;;-7.14;69.02;98666.06;4991180;28;20466;-78
2023/03/11 03:25:15;;;;;;;0.85;0.85;;;;;;;-7.12;68.93;98679.84;4981985;28;20453;-78
2023/03/11 03:27:42;;;;;;;0.85;0.85;;;;;;;-7.12;68.75;98677.22;4972453;28;20482;-77
2023/03/11 03:30:13;;;;;;;0.90;0.90;;;;;;;-7.11;68.81;98678.91;4990120;28;20058;-78
2023/03/11 03:32:42;;;;;;;1.08;1.08;;;;;;;-7.15;68.61;98680.13;4990891;28;20054;-78
2023/03/11 03:35:13;;;;;;;0.90;0.90;;;;;;;-7.18;68.98;98683.06;4990622;28;20403;-77
2023/03/11 03:37:56;;;;;;;1.00;1.00;;;;;;;-7.15;68.93;98677.53;4991133;28;20047;-78
2023/03/11 03:40:24;;;;;;;0.82;0.82;;;;;;;-7.11;69.20;98681.53;4990759;28;20046;-78
2023/03/11 03:42:52;;;;;;;0.80;0.80;;;;;;;-7.14;69.06;98680.97;4990633;28;20050;-80
2023/03/11 03:45:19;;;;;;;1.08;1.08;;;;;;;-7.17;69.04;98671.56;4991737;28;20077;-78
2023/03/11 03:47:51;;;;;;;1.02;1.02;;;;;;;-7.18;69.04;98671.75;4990799;28;20050;-79
2023/03/11 03:50:21;;;;;;;0.90;0.90;;;;;;;-7.21;69.25;98675.47;4990572;28;20176;-78
2023/03/11 03:52:54;;;;;;;1.00;1.00;;;;;;;-7.24;69.44;98666.09;4991986;28;20046;-79
2023/03/11 03:55:22;;;;;;;1.15;1.15;;;;;;;-7.24;69.52;98663.47;4990638;28;20468;-79
2023/03/11 03:57:50;;;;;;;0.70;0.70;;;;;;;-7.24;69.80;98667.84;4990641;28;20485;-79
2023/03/11 04:00:20;;;;;;;0.80;0.80;;;;;;;-7.24;70.20;98667.84;4971460;28;20050;-80
2023/03/11 04:02:54;;;;;;;0.90;0.90;;;;;;;-7.28;70.33;98658.63;4981248;28;20050;-80
2023/03/11 04:05:34;;;;;;;1.00;1.00;;;;;;;-7.32;70.73;98654.63;4984228;28;20077;-82
2023/03/11 04:08:01;;;;;;;1.08;1.08;;;;;;;-7.31;71.21;98661.53;4984489;28;20473;-78
2023/03/11 04:10:28;;;;;;;1.00;1.00;;;;;;;-7.35;71.30;98653.09;4981169;28;20263;-79
2023/03/11 04:12:58;;;;;;;0.90;0.90;;;;;;;-7.33;71.69;98651.19;4977391;28;20137;-79
2023/03/11 04:15:26;;;;;;;1.13;1.13;;;;;;;-7.35;71.92;98647.88;4978985;28;20050;-77
2023/03/11 04:17:53;;;;;;;1.00;1.00;;;;;;;-7.36;72.07;98658.50;4979461;28;20047;-78
2023/03/11 04:20:20;;;;;;;0.95;0.95;;;;;;;-7.45;72.24;98645.25;4979585;28;20077;-79
2023/03/11 04:22:50;;;;;;;0.90;0.90;;;;;;;-7.45;72.50;98647.03;4979125;28;20374;-79
2023/03/11 04:25:19;;;;;;;1.30;1.20;;;;;;;-7.44;72.85;98643.47;4980167;28;20066;-78
2023/03/11 04:27:48;;;;;;;0.98;0.98;;;;;;;-7.44;73.03;98633.81;4983578;28;20497;-79
2023/03/11 04:30:16;;;;;;;0.90;0.90;;;;;;;-7.43;73.15;98632.00;4983574;28;20429;-79
2023/03/11 04:32:48;;;;;;;0.80;0.80;;;;;;;-7.43;73.29;98627.59;4971087;28;20105;-77
2023/03/11 04:35:16;;;;;;;0.90;0.90;;;;;;;-7.44;73.60;98625.94;4969540;28;20093;-79
2023/03/11 04:37:47;;;;;;;1.10;1.10;;;;;;;-7.49;73.56;98622.09;4978889;28;20060;-79
2023/03/11 04:40:14;;;;;;;1.05;1.05;;;;;;;-7.48;73.59;98616.69;4981148;28;20540;-80
2023/03/11 04:42:41;;;;;;;0.90;0.90;;;;;;;-7.47;73.81;98628.84;4962863;28;20069;-79
2023/03/11 04:45:10;;;;;;;1.00;1.00;;;;;;;-7.44;74.16;98617.25;4978837;28;20056;-80
2023/03/11 04:47:38;;;;;;;1.00;1.00;;;;;;;-7.41;74.44;98617.78;4979177;28;20463;-80
2023/03/11 04:50:06;;;;;;;0.90;0.90;;;;;;;-7.40;74.36;98618.63;4979910;28;20073;-80
2023/03/11 04:52:34;;;;;;;1.17;1.17;;;;;;;-7.36;74.59;98613.94;4980161;28;20050;-78
2023/03/11 04:55:01;;;;;;;1.08;1.08;;;;;;;-7.34;74.69;98611.97;4980036;28;20081;-80
2023/03/11 04:57:30;;;;;;;1.08;1.08;;;;;;;-7.38;74.83;98611.44;4989334;28;20046;-84
2023/03/11 04:59:59;;;;;;;0.90;0.90;;;;;;;-7.43;75.04;98611.84;4989454;28;20054;-81
2023/03/11 05:02:28;;;;;;;1.00;1.00;;;;;;;-7.44;75.63;98604.97;4989271;28;20120;-78
2023/03/11 05:04:59;;;;;;;1.30;1.20;;;;;;;-7.46;75.90;98600.84;4982624;28;20089;-78
2023/03/11 05:07:29;;;;;;;1.13;1.13;;;;;;;-7.39;76.17;98607.19;4987507;28;20088;-78
2023/03/11 05:09:57;;;;;;;1.10;1.10;;;;;;;-7.32;76.23;98600.38;4984097;28;20053;-78
2023/03/11 05:12:27;;;;;;;1.10;1.10;;;;;;;-7.21;76.46;98610.72;4982744;28;20504;-82
2023/03/11 05:14:54;;;;;;;1.10;1.10;;;;;;;-7.14;76.37;98603.13;4987669;28;20674;-79
2023/03/11 05:17:21;;;;;;;1.00;1.00;;;;;;;-7.20;76.45;98603.69;4990703;28;20133;-78
2023/03/11 05:19:52;;;;;;;1.17;1.17;;;;;;;-7.29;76.57;98607.13;4990395;28;20054;-79
2023/03/11 05:22:26;;;;;;;1.13;1.13;;;;;;;-7.27;76.95;98599.97;4991141;28;20042;-79
2023/03/11 05:24:53;;;;;;;0.90;0.90;;;;;;;-7.23;77.17;98599.53;4992986;28;20100;-79
2023/03/11 05:27:21;;;;;;;1.10;1.10;;;;;;;-7.08;77.17;98597.31;5000267;28;20056;-79
2023/03/11 05:29:52;;;;;;;1.00;1.00;;;;;;;-7.07;76.93;98606.81;4985644;28;20046;-82
2023/03/11 05:32:21;;;;;;;1.38;1.27;;;;;;;-7.09;77.24;98602.69;4984114;28;20129;-79
2023/03/11 05:34:51;;;;;;;1.17;1.15;;;;;;;-7.09;77.38;98606.16;4640384;28;10000898;-81
2023/03/11 05:37:20;;;;;;;1.30;1.20;;;;;;;-7.06;77.28;98605.03;4970352;28;20095;-81
2023/03/11 05:39:51;;;;;;;1.33;1.23;;;;;;;-7.00;77.29;98597.41;4987122;28;20505;-82
2023/03/11 05:42:19;;;;;;;0.90;0.90;;;;;;;-6.97;77.32;98599.75;4972423;28;20061;-80
2023/03/11 05:44:56;;;;;;;0.93;0.93;;;;;;;-7.02;77.32;98596.72;4988255;28;20043;-80
2023/03/11 05:47:29;;;;;;;1.05;1.05;;;;;;;-7.00;77.27;98589.53;4989796;28;20094;-82
2023/03/11 05:49:59;;;;;;;1.00;1.00;;;;;;;-7.02;77.33;98586.22;4988695;28;20061;-81
2023/03/11 05:52:30;;;;;;;1.00;1.00;;;;;;;-6.98;77.30;98597.28;4989056;28;20049;-80
2023/03/11 05:54:57;;;;;;;1.13;1.13;;;;;;;-6.94;77.21;98592.56;4990865;28;20073;-79
2023/03/11 05:57:27;;;;;;;1.02;1.02;;;;;;;-6.98;77.04;98592.84;5003849;28;20054;-80
2023/03/11 05:59:55;;;;;;;1.10;1.10;;;;;;;-6.99;77.14;98599.09;4986742;28;20046;-85
2023/03/11 06:02:22;;;;;;;0.95;0.95;;;;;;;-6.93;77.50;98599.47;4991864;28;20054;-82
2023/03/11 06:04:49;;;;;;;1.00;1.00;;;;;;;-6.93;77.56;98599.47;4993230;28;20065;-83
2023/03/11 06:07:17;;;;;;;0.95;0.95;;;;;;;-6.89;77.50;98590.34;4992831;28;20042;-82
2023/03/11 06:09:50;;;;;;;0.90;0.90;;;;;;;-6.92;77.37;98595.88;4991707;28;20058;-83
2023/03/11 06:12:20;;;;;;;0.88;0.88;;;;;;;-6.98;77.51;98589.41;4982436;28;20057;-81
2023/03/11 06:15:06;;;;;;;1.10;1.10;;;;;;;-6.86;77.33;98608.41;4982979;28;20100;-82
2023/03/11 06:17:39;;;;;;;1.02;1.02;;;;;;;-7.01;77.47;98584.44;4988208;28;20051;-80
2023/03/11 06:20:08;;;;;;;1.00;1.00;;;;;;;-6.93;77.47;98599.47;4964719;28;20051;-80
2023/03/11 06:22:36;;;;;;;0.80;0.80;;;;;;;-6.80;77.38;98587.69;4987318;28;20421;-81
2023/03/11 06:25:07;;;;;;;1.00;1.00;;;;;;;-6.89;77.36;98583.28;4986927;28;20399;-81
2023/03/11 06:27:36;;;;;;;1.10;1.10;;;;;;;-6.86;77.61;98571.66;4985128;28;20128;-83
2023/03/11 06:30:09;;;;;;;1.00;1.00;;;;;;;-6.80;77.53;98582.44;4992385;28;20505;-81
2023/03/11 06:32:45;;;;;;;0.88;0.88;;;;;;;-6.74;77.60;98575.75;4992915;28;20053;-82
2023/03/11 06:35:13;;;;;;;1.08;1.08;;;;;;;-6.86;77.35;98561.19;4999479;28;20157;-82
2023/03/11 06:37:40;;;;;;;0.93;0.93;;;;;;;-6.83;77.47;98569.59;4991223;28;20137;-84
2023/03/11 06:40:09;;;;;;;0.95;0.95;;;;;;;-6.74;77.41;98582.81;4983193;28;20093;-81
2023/03/11 06:42:37;;;;;;;0.90;0.90;;;;;;;-6.67;77.07;98578.66;4996102;28;20051;-81
2023/03/11 06:45:07;;;;;;;0.88;0.88;;;;;;;-6.69;77.13;98576.16;4996951;28;20058;-82
2023/03/11 06:47:41;;;;;;;1.00;1.00;;;;;;;-6.65;77.26;98582.78;5008447;28;20046;-80
2023/03/11 06:50:09;;;;;;;1.40;1.30;;;;;;;-6.57;77.04;98574.19;4999607;28;20074;-81
2023/03/11 06:52:36;;;;;;;0.90;0.90;;;;;;;-6.50;76.84;98584.94;4651230;28;10000221;-82
2023/03/11 06:55:05;;;;;;;1.30;1.20;;;;;;;-6.40;76.64;98578.66;4980691;28;20133;-80
2023/03/11 06:57:33;;;;;;;1.08;1.08;;;;;;;-6.34;76.40;98562.28;4977442;28;20058;-81
2023/03/11 07:00:06;;;;;;;1.40;1.30;;;;;;;-6.16;76.47;98559.69;4992397;28;20052;-80
2023/03/11 07:02:35;;;;;;;0.85;0.85;;;;;;;-6.06;75.96;98558.78;4989716;28;20516;-80
2023/03/11 07:05:03;;;;;;;0.77;0.77;;;;;;;-6.00;75.88;98563.44;4993850;28;20053;-82
2023/03/11 07:07:31;;;;;;;1.00;1.00;;;;;;;-5.80;75.68;98562.28;5006567;28;20061;-82
2023/03/11 07:10:00;;;;;;;0.70;0.70;;;;;;;-5.90;75.55;98559.75;4994654;28;20054;-80
2023/03/11 07:12:29;;;;;;;0.65;0.65;;;;;;;-5.95;75.22;98569.06;4956070;28;20050;-80
2023/03/11 07:15:00;;;;;;;1.05;1.05;;;;;;;-5.98;75.51;98553.59;4993345;28;20133;-81
2023/03/11 07:17:29;;;;;;;1.00;1.00;;;;;;;-5.92;75.27;98547.75;5002384;28;20046;-80
2023/03/11 07:20:01;;;;;;;0.82;0.82;;;;;;;-5.93;75.16;98548.69;5006287;28;20532;-82
2023/03/11 07:22:29;;;;;;;0.70;0.70;;;;;;;-5.97;75.41;98550.03;5006578;28;20045;-81
2023/03/11 07:24:56;;;;;;;0.82;0.82;;;;;;;-5.96;75.49;98552.47;5004372;28;20417;-82
2023/03/11 07:27:24;;;;;;;0.93;0.93;;;;;;;-5.92;75.78;98539.84;4999375;28;20038;-82
2023/03/11 07:29:51;;;;;;;0.90;0.90;;;;;;;-5.81;75.63;98541.41;5007815;28;20072;-80
2023/03/11 07:32:20;;;;;;;0.80;0.80;;;;;;;-5.85;75.54;98530.38;4976459;28;20448;-81
2023/03/11 07:34:48;;;;;;;0.90;0.90;;;;;;;-5.94;75.66;98524.25;4988395;28;20054;-82
2023/03/11 07:37:15;;;;;;;0.90;0.90;;;;;;;-5.91;76.00;98528.34;5002612;28;20050;-80
2023/03/11 07:39:43;;;;;;;0.85;0.85;;;;;;;-5.86;76.23;98512.13;4970541;28;20047;-80
2023/03/11 07:42:12;;;;;;;0.90;0.90;;;;;;;-5.79;76.22;98508.75;4980957;28;20548;-83
2023/03/11 07:44:41;;;;;;;1.00;1.00;;;;;;;-5.90;76.25;98504.56;4986793;28;20168;-83
2023/03/11 07:47:08;;;;;;;0.88;0.88;;;;;;;-5.90;76.26;98494.06;4996583;28;20050;-84
2023/03/11 07:49:36;;;;;;;0.95;0.95;;;;;;;-5.90;76.38;98490.56;4986705;28;20568;-85
2023/03/11 07:52:03;;;;;;;0.80;0.80;;;;;;;-5.95;76.61;98479.72;4991688;28;20053;-82
2023/03/11 07:54:30;;;;;;;0.90;0.90;;;;;;;-5.91;76.93;98467.91;4995787;28;20054;-85
2023/03/11 07:56:57;;;;;;;0.75;0.75;;;;;;;-5.75;76.84;98469.81;4998725;28;20437;-80
2023/03/11 07:59:25;;;;;;;0.90;0.90;;;;;;;-5.46;76.55;98470.34;4969829;28;20042;-82
2023/03/11 08:01:53;;;;;;;1.00;1.00;;;;;;;-5.31;76.32;98457.44;4985429;28;20868;-82
2023/03/11 08:04:20;;;;;;;1.42;0.90;;;;;;;-5.32;75.65;98461.03;4968431;28;20051;-81
2023/03/11 08:06:47;;;;;;;0.98;0.98;;;;;;;-5.42;75.09;98470.84;4968649;28;20518;-82
2023/03/11 08:09:23;;;;;;;0.93;0.93;;;;;;;-5.46;75.70;98456.38;4981075;28;20117;-81
2023/03/11 08:11:50;;;;;;;0.80;0.80;;;;;;;-5.40;75.75;98458.38;4992799;28;20062;-81
2023/03/11 08:14:17;;;;;;;0.90;0.90;;;;;;;-5.42;75.60;98456.88;5000856;28;20141;-80
2023/03/11 08:16:44;;;;;;;1.05;1.05;;;;;;;-5.46;75.74;98459.84;4992549;28;20052;-81
2023/03/11 08:19:16;;;;;;;0.88;0.88;;;;;;;-5.37;75.67;98441.47;4989875;28;20050;-80
2023/03/11 08:21:44;;;;;;;0.82;0.82;;;;;;;-5.40;75.72;98428.63;4984445;28;20725;-81
2023/03/11 08:24:12;;;;;;;0.80;0.80;;;;;;;-5.20;75.82;98431.84;4988859;28;20046;-81
2023/03/11 08:26:40;;;;;;;0.95;0.95;;;;;;;-4.96;75.45;98417.94;4990911;28;20065;-81
2023/03/11 08:29:07;;;;;;;0.90;0.90;;;;;;;-4.73;75.21;98426.09;4990527;28;20050;-82
2023/03/11 08:31:34;;;;;;;1.00;1.00;;;;;;;-4.59;74.44;98428.06;4996200;28;20069;-80
2023/03/11 08:34:08;;;;;;;0.90;0.90;;;;;;;-4.58;73.94;98417.38;4986741;28;20051;-83
2023/03/11 08:36:35;;;;;;;0.80;0.80;;;;;;;-4.90;73.76;98406.78;4971905;28;20434;-82
2023/03/11 08:39:03;;;;;;;0.80;0.80;;;;;;;-5.23;74.08;98412.75;4971498;28;20046;-82
2023/03/11 08:41:30;;;;;;;0.70;0.70;;;;;;;-5.45;74.80;98421.19;4983458;28;20723;-80
2023/03/11 08:43:57;;;;;;;1.00;1.00;;;;;;;-5.57;75.29;98425.06;4990202;28;20054;-81
2023/03/11 08:46:25;;;;;;;0.70;0.70;;;;;;;-5.73;76.28;98431.88;4976526;28;20052;-82
2023/03/11 08:48:54;;;;;;;0.75;0.75;;;;;;;-5.82;77.16;98426.72;4990559;28;20141;-81
2023/03/11 08:51:22;;;;;;;0.90;0.90;;;;;;;-5.83;77.60;98431.16;4983148;28;20105;-82
2023/03/11 08:53:53;;;;;;;0.90;0.90;;;;;;;-5.82;77.59;98445.13;4979767;28;20097;-83
2023/03/11 08:56:20;;;;;;;0.75;0.75;;;;;;;-5.92;77.58;98442.63;4978987;28;20058;-82
2023/03/11 08:58:48;;;;;;;0.68;0.68;;;;;;;-5.89;77.40;98400.25;4971225;28;20051;-82
2023/03/11 09:01:24;;;;;;;1.27;1.20;;;;;;;-5.78;77.66;98415.75;4983261;28;20072;-83
2023/03/11 09:03:51;;;;;;;1.02;1.02;;;;;;;-5.61;77.28;98418.50;4983981;28;20045;-82
2023/03/11 09:06:20;;;;;;;0.80;0.80;;;;;;;-5.39;77.02;98417.13;4998852;28;20057;-82
2023/03/11 09:08:47;;;;;;;0.80;0.80;;;;;;;-5.30;76.26;98422.25;5021620;28;20062;-81
2023/03/11 09:11:15;;;;;;;0.90;0.90;;;;;;;-5.18;76.37;98404.41;4993122;28;20555;-82
2023/03/11 09:13:42;;;;;;;0.80;0.80;;;;;;;-5.04;75.90;98395.06;5002427;28;20050;-82
2023/03/11 09:16:22;;;;;;;0.88;0.88;;;;;;;-5.08;76.07;98394.56;4999053;28;20656;-81
2023/03/11 09:18:49;;;;;;;0.98;0.98;;;;;;;-5.23;76.13;98386.44;4981752;28;20057;-81
2023/03/11 09:21:17;;;;;;;0.80;0.80;;;;;;;-5.32;76.71;98412.88;4982642;28;20070;-81
2023/03/11 09:23:45;;;;;;;0.70;0.70;;;;;;;-5.38;77.13;98398.56;4990639;28;20053;-84
2023/03/11 09:26:15;;;;;;;0.88;0.88;;;;;;;-5.40;77.36;98405.78;4978424;28;20046;-81
2023/03/11 09:28:47;;;;;;;0.63;0.63;;;;;;;-5.50;77.37;98400.63;4991390;28;20054;-82
2023/03/11 09:31:16;;;;;;;0.70;0.70;;;;;;;-5.50;77.49;98394.56;4994336;28;20120;-82
2023/03/11 09:33:46;;;;;;;0.80;0.80;;;;;;;-5.49;77.94;98399.66;4986636;28;20054;-81
2023/03/11 09:36:16;;;;;;;0.80;0.80;;;;;;;-5.45;78.01;98397.53;4997526;28;20517;-81
2023/03/11 09:38:43;;;;;;;0.70;0.70;;;;;;;-5.47;77.98;98387.19;5001965;28;20509;-83
2023/03/11 09:41:17;;;;;;;0.70;0.70;;;;;;;-5.45;77.61;98387.00;5007269;28;20125;-80
2023/03/11 09:44:18;;;;;;;0.90;0.90;;;;;;;-5.41;77.66;98375.22;4982015;28;20049;-82
2023/03/11 09:47:16;;;;;;;0.80;0.80;;;;;;;-5.35;77.64;98379.00;5000528;28;20674;-84
2023/03/11 09:49:58;;;;;;;0.80;0.80;;;;;;;-5.42;77.09;98364.84;4994403;28;20145;-84
2023/03/11 09:52:50;;;;;;;1.00;1.00;;;;;;;-5.51;76.99;98367.44;4999147;28;20061;-82
2023/03/11 09:55:37;;;;;;;0.70;0.70;;;;;;;-5.56;76.96;98340.78;4993788;28;20048;-83
2023/03/11 09:58:17;;;;;;;0.77;0.77;;;;;;;-5.61;76.80;98348.34;4997455;28;20050;-82
2023/03/11 10:00:50;;;;;;;0.80;0.80;;;;;;;-5.63;76.81;98354.72;4992160;28;20555;-84
2023/03/11 10:03:31;;;;;;;0.90;0.90;;;;;;;-5.63;76.84;98347.66;4989199;28;20136;-85
2023/03/11 10:06:28;;;;;;;0.90;0.90;;;;;;;-5.51;76.70;98340.31;4996918;28;20057;-85
2023/03/11 10:09:33;;;;;;;0.70;0.70;;;;;;;-5.50;76.69;98315.66;4999172;28;20504;-84
2023/03/11 10:12:23;;;;;;;0.85;0.85;;;;;;;-5.46;76.36;98309.13;4978079;28;20107;-82
2023/03/11 10:15:10;;;;;;;0.82;0.82;;;;;;;-5.43;75.96;98308.78;4982859;28;20047;-83
2023/03/11 10:17:53;;;;;;;0.90;0.90;;;;;;;-5.45;75.94;98305.50;4642678;28;10000954;-84
2023/03/11 10:20:33;;;;;;;1.00;1.00;;;;;;;-5.35;75.93;98294.84;4984851;28;20546;-84
2023/03/11 10:23:15;;;;;;;1.00;1.00;;;;;;;-5.25;75.82;98293.72;4978725;28;20778;-84
2023/03/11 10:26:07;;;;;;;0.90;0.90;;;;;;;-5.15;75.58;98283.03;4974194;28;20149;-83
2023/03/11 10:28:56;;;;;;;0.80;0.80;;;;;;;-5.27;74.86;98290.41;4986809;28;20136;-83
2023/03/11 10:31:28;;;;;;;0.90;0.90;;;;;;;-5.30;75.10;98285.47;4983230;28;20837;-83
2023/03/11 10:34:14;;;;;;;0.73;0.73;;;;;;;-5.24;75.33;98269.06;4945171;28;20058;-83
2023/03/11 10:37:02;;;;;;;0.80;0.80;;;;;;;-5.23;75.25;98254.91;4987379;28;20050;-83
2023/03/11 10:39:35;;;;;;;0.80;0.80;;;;;;;-5.24;75.62;98265.63;4963645;28;20789;-84
2023/03/11 10:42:04;;;;;;;0.75;0.75;;;;;;;-5.28;75.57;98253.75;4984615;28;20414;-82
2023/03/11 10:44:34;;;;;;;0.65;0.65;;;;;;;-5.25;75.93;98251.63;4981815;28;20049;-82
2023/03/11 10:47:01;;;;;;;0.90;0.90;;;;;;;-5.26;75.59;98257.88;4974202;28;20053;-83
2023/03/11 10:49:29;;;;;;;0.90;0.90;;;;;;;-5.26;75.77;98249.16;4972805;28;20461;-83
2023/03/11 10:52:03;;;;;;;0.73;0.73;;;;;;;-5.11;76.23;98249.34;4980648;28;20142;-80
2023/03/11 10:54:34;;;;;;;0.90;0.90;;;;;;;-4.97;76.06;98240.78;4982291;28;20055;-82
2023/03/11 10:57:03;;;;;;;0.80;0.80;;;;;;;-5.00;75.34;98230.59;4992991;28;20105;-81
2023/03/11 10:59:34;;;;;;;0.82;0.82;;;;;;;-4.94;75.51;98226.47;4983121;28;20046;-83
2023/03/11 11:02:15;;;;;;;0.80;0.80;;;;;;;-4.86;75.14;98224.69;4982491;28;20506;-81
2023/03/11 11:04:45;;;;;;;0.90;0.90;;;;;;;-4.82;75.27;98214.63;4973775;28;20050;-83
2023/03/11 11:07:29;;;;;;;0.73;0.73;;;;;;;-4.90;75.02;98204.94;4979733;28;20077;-80
2023/03/11 11:10:19;;;;;;;0.68;0.68;;;;;;;-4.89;75.04;98201.31;4982052;28;20066;-80
2023/03/11 11:12:49;;;;;;;0.80;0.80;;;;;;;-4.87;75.53;98199.31;4981559;28;20061;-81
2023/03/11 11:15:21;;;;;;;0.98;0.98;;;;;;;-4.91;75.56;98194.56;4979342;28;20520;-82
2023/03/11 11:17:49;;;;;;;0.80;0.80;;;;;;;-4.98;75.65;98193.59;4998660;28;20052;-83
2023/03/11 11:20:18;;;;;;;0.70;0.70;;;;;;;-4.99;75.74;98192.75;4986324;28;20046;-82
2023/03/11 11:22:57;;;;;;;0.60;0.60;;;;;;;-4.96;75.87;98199.50;4991000;28;20046;-84
2023/03/11 11:25:29;;;;;;;0.80;0.80;;;;;;;-4.92;75.71;98192.94;4984337;28;20072;-82
2023/03/11 11:27:59;;;;;;;0.80;0.80;;;;;;;-4.91;76.13;98187.50;4985785;28;20042;-82
2023/03/11 11:30:38;;;;;;;0.80;0.80;;;;;;;-4.89;76.10;98176.78;4976774;28;20043;-84
2023/03/11 11:33:29;;;;;;;0.95;0.95;;;;;;;-4.96;76.11;98181.91;4978771;28;20050;-84
2023/03/11 11:36:00;;;;;;;0.68;0.68;;;;;;;-5.04;76.00;98181.91;4983358;28;20137;-81
2023/03/11 11:38:28;;;;;;;0.75;0.75;;;;;;;-5.05;76.50;98188.97;4975744;28;20047;-83
2023/03/11 11:40:58;;;;;;;0.90;0.90;;;;;;;-5.04;76.66;98174.84;4986779;28;20560;-83
2023/03/11 11:43:41;;;;;;;0.70;0.70;;;;;;;-5.08;76.72;98175.34;4985654;28;20054;-80
2023/03/11 11:46:42;;;;;;;0.82;0.82;;;;;;;-5.17;77.00;98189.47;4978422;28;20061;-80
2023/03/11 11:49:24;;;;;;;0.52;0.52;;;;;;;-5.20;77.21;98189.81;4969313;28;20058;-82
2023/03/11 11:52:15;;;;;;;0.70;0.70;;;;;;;-5.23;77.52;98186.50;4986914;28;20062;-82
2023/03/11 11:55:02;;;;;;;0.68;0.68;;;;;;;-5.16;77.82;98181.44;4963123;28;20486;-84